createdAt,value
2018-03-07T00:00:25.634Z,0
2018-03-07T00:01:25.137Z,0
2018-03-07T00:02:25.061Z,0
2018-03-07T00:03:25.309Z,0
2018-03-07T00:04:25.027Z,0
2018-03-07T00:05:25.353Z,0
2018-03-07T00:06:25.250Z,0
2018-03-07T00:07:24.971Z,0
2018-03-07T00:08:24.952Z,0
2018-03-07T00:09:24.931Z,0
2018-03-07T00:10:24.911Z,0
2018-03-07T00:11:25.425Z,0
2018-03-07T00:12:25.151Z,0
2018-03-07T00:13:24.856Z,0
2018-03-07T00:14:25.389Z,0
2018-03-07T00:15:24.829Z,0
2018-03-07T00:16:25.341Z,0
2018-03-07T00:17:25.050Z,0
2018-03-07T00:18:25.035Z,0
2018-03-07T00:19:25.278Z,0
2018-03-07T00:20:24.993Z,0
2018-03-07T00:21:24.711Z,0
2018-03-07T00:22:24.692Z,0
2018-03-07T00:23:24.940Z,0
2018-03-07T00:24:24.920Z,0
2018-03-07T00:25:24.634Z,0
2018-03-07T00:26:25.157Z,0
2018-03-07T00:27:24.862Z,0
2018-03-07T00:28:24.582Z,0
2018-03-07T00:29:24.834Z,0
2018-03-07T00:30:24.281Z,0
2018-03-07T00:31:25.060Z,0
2018-03-07T00:32:24.776Z,0
2018-03-07T00:33:25.039Z,0
2018-03-07T00:34:24.738Z,0
2018-03-07T00:35:24.461Z,0
2018-03-07T00:36:24.708Z,0
2018-03-07T00:37:24.689Z,0
2018-03-07T00:38:24.407Z,0
2018-03-07T00:39:24.378Z,0
2018-03-07T00:40:24.092Z,0
2018-03-07T00:41:24.398Z,0
2018-03-07T00:42:24.857Z,0
2018-03-07T00:43:24.571Z,0
2018-03-07T00:44:24.815Z,0
2018-03-07T00:45:24.281Z,0
2018-03-07T00:46:24.790Z,0
2018-03-07T00:47:24.505Z,0
2018-03-07T00:48:24.478Z,0
2018-03-07T00:49:24.198Z,0
2018-03-07T00:50:24.176Z,0
2018-03-07T00:51:24.429Z,0
2018-03-07T00:52:24.143Z,0
2018-03-07T00:53:24.124Z,0
2018-03-07T00:54:23.844Z,0
2018-03-07T00:55:24.354Z,0
2018-03-07T00:56:24.338Z,0
2018-03-07T00:57:24.050Z,0
2018-03-07T00:58:24.559Z,0
2018-03-07T00:59:24.018Z,0
2018-03-07T01:00:23.728Z,0
2018-03-07T01:01:24.238Z,0
2018-03-07T01:02:23.960Z,0
2018-03-07T01:03:23.666Z,0
2018-03-07T01:04:24.182Z,0
2018-03-07T01:05:24.174Z,0
2018-03-07T01:06:23.884Z,0
2018-03-07T01:07:24.130Z,0
2018-03-07T01:08:23.846Z,0
2018-03-07T01:09:24.143Z,0
2018-03-07T01:10:24.348Z,0
2018-03-07T01:11:23.786Z,0
2018-03-07T01:12:23.505Z,0
2018-03-07T01:13:23.751Z,0
2018-03-07T01:14:24.267Z,0
2018-03-07T01:15:23.721Z,0
2018-03-07T01:16:23.702Z,0
2018-03-07T01:17:23.681Z,0
2018-03-07T01:18:23.927Z,0
2018-03-07T01:19:23.910Z,0
2018-03-07T01:20:23.628Z,0
2018-03-07T01:21:23.873Z,0
2018-03-07T01:22:23.636Z,0
2018-03-07T01:23:23.576Z,0
2018-03-07T01:24:23.812Z,0
2018-03-07T01:25:23.794Z,0
2018-03-07T01:26:23.772Z,0
2018-03-07T01:27:23.760Z,0
2018-03-07T01:28:23.222Z,0
2018-03-07T01:29:23.472Z,0
2018-03-07T01:30:24.024Z,0
2018-03-07T01:31:23.417Z,0
2018-03-07T01:32:23.667Z,0
2018-03-07T01:33:23.652Z,0
2018-03-07T01:34:24.040Z,0
2018-03-07T01:35:23.081Z,0
2018-03-07T01:36:23.334Z,0
2018-03-07T01:37:23.844Z,0
2018-03-07T01:38:23.557Z,0
2018-03-07T01:39:23.533Z,0
2018-03-07T01:40:23.523Z,0
2018-03-07T01:41:23.505Z,0
2018-03-07T01:42:23.214Z,0
2018-03-07T01:43:23.200Z,0
2018-03-07T01:44:23.449Z,0
2018-03-07T01:45:23.424Z,0
2018-03-07T01:46:23.675Z,0
2018-03-07T01:47:23.121Z,0
2018-03-07T01:48:22.904Z,0
2018-03-07T01:49:23.351Z,0
2018-03-07T01:50:22.803Z,0
2018-03-07T01:51:23.048Z,0
2018-03-07T01:52:23.033Z,0
2018-03-07T01:53:23.015Z,0
2018-03-07T01:54:23.007Z,0
2018-03-07T01:55:22.979Z,0
2018-03-07T01:56:23.219Z,0
2018-03-07T01:57:22.675Z,0
2018-03-07T01:58:23.183Z,0
2018-03-07T01:59:23.176Z,0
2018-03-07T02:00:23.225Z,0
2018-03-07T02:01:22.606Z,0
2018-03-07T02:02:22.842Z,0
2018-03-07T02:03:23.099Z,0
2018-03-07T02:04:22.809Z,0
2018-03-07T02:05:23.052Z,0
2018-03-07T02:06:23.040Z,0
2018-03-07T02:07:23.018Z,0
2018-03-07T02:08:22.735Z,0
2018-03-07T02:09:22.986Z,0
2018-03-07T02:10:41.905Z,0
2018-03-07T02:11:22.944Z,0
2018-03-07T02:12:22.657Z,0
2018-03-07T02:13:22.917Z,0
2018-03-07T02:14:22.885Z,0
2018-03-07T02:15:22.613Z,0
2018-03-07T02:16:22.851Z,0
2018-03-07T02:17:22.574Z,0
2018-03-07T02:18:22.810Z,0
2018-03-07T02:19:22.269Z,0
2018-03-07T02:20:22.777Z,0
2018-03-07T02:21:22.496Z,0
2018-03-07T02:22:22.749Z,0
2018-03-07T02:23:22.192Z,0
2018-03-07T02:24:22.441Z,0
2018-03-07T02:25:22.164Z,0
2018-03-07T02:26:22.394Z,0
2018-03-07T02:27:22.923Z,0
2018-03-07T02:28:22.093Z,0
2018-03-07T02:29:22.392Z,0
2018-03-07T02:30:22.060Z,0
2018-03-07T02:31:22.033Z,0
2018-03-07T02:32:22.548Z,0
2018-03-07T02:33:22.267Z,0
2018-03-07T02:34:22.254Z,0
2018-03-07T02:35:21.964Z,0
2018-03-07T02:36:22.213Z,0
2018-03-07T02:37:22.195Z,0
2018-03-07T02:38:22.444Z,0
2018-03-07T02:39:22.420Z,0
2018-03-07T02:40:22.403Z,0
2018-03-07T02:41:21.853Z,0
2018-03-07T02:42:22.100Z,0
2018-03-07T02:43:22.352Z,0
2018-03-07T02:44:22.323Z,0
2018-03-07T02:45:21.800Z,0
2018-03-07T02:46:21.757Z,0
2018-03-07T02:47:21.738Z,0
2018-03-07T02:48:22.031Z,0
2018-03-07T02:49:22.228Z,0
2018-03-07T02:50:21.949Z,0
2018-03-07T02:51:22.189Z,0
2018-03-07T02:52:21.910Z,0
2018-03-07T02:53:22.427Z,0
2018-03-07T02:54:22.410Z,0
2018-03-07T02:55:21.902Z,0
2018-03-07T02:56:21.843Z,0
2018-03-07T02:57:22.346Z,0
2018-03-07T02:58:22.339Z,0
2018-03-07T02:59:22.040Z,0
2018-03-07T03:00:21.492Z,0
2018-03-07T03:01:22.014Z,0
2018-03-07T03:02:21.719Z,0
2018-03-07T03:03:21.707Z,0
2018-03-07T03:04:21.692Z,0
2018-03-07T03:05:21.398Z,0
2018-03-07T03:06:22.203Z,0
2018-03-07T03:07:21.896Z,0
2018-03-07T03:08:22.194Z,0
2018-03-07T03:09:21.858Z,0
2018-03-07T03:10:21.571Z,0
2018-03-07T03:11:21.549Z,0
2018-03-07T03:12:21.796Z,0
2018-03-07T03:13:21.246Z,0
2018-03-07T03:14:21.488Z,0
2018-03-07T03:15:21.473Z,0
2018-03-07T03:16:21.716Z,0
2018-03-07T03:17:22.013Z,0
2018-03-07T03:18:21.687Z,0
2018-03-07T03:19:21.397Z,0
2018-03-07T03:20:21.641Z,0
2018-03-07T03:21:21.884Z,0
2018-03-07T03:22:21.607Z,0
2018-03-07T03:23:21.320Z,0
2018-03-07T03:24:21.038Z,0
2018-03-07T03:25:21.284Z,0
2018-03-07T03:26:21.265Z,0
2018-03-07T03:27:21.241Z,0
2018-03-07T03:28:21.488Z,0
2018-03-07T03:29:20.946Z,0
2018-03-07T03:30:20.931Z,0
2018-03-07T03:31:21.447Z,0
2018-03-07T03:32:21.158Z,0
2018-03-07T03:33:21.148Z,0
2018-03-07T03:34:21.111Z,0
2018-03-07T03:35:21.682Z,0
2018-03-07T03:36:21.348Z,0
2018-03-07T03:37:21.053Z,0
2018-03-07T03:38:21.037Z,0
2018-03-07T03:39:21.291Z,0
2018-03-07T03:40:21.269Z,0
2018-03-07T03:41:21.244Z,0
2018-03-07T03:42:20.695Z,0
2018-03-07T03:43:21.209Z,0
2018-03-07T03:44:21.189Z,0
2018-03-07T03:45:21.217Z,0
2018-03-07T03:46:20.896Z,0
2018-03-07T03:47:21.137Z,0
2018-03-07T03:48:20.855Z,0
2018-03-07T03:49:21.102Z,0
2018-03-07T03:50:20.807Z,0
2018-03-07T03:51:21.057Z,0
2018-03-07T03:52:21.046Z,0
2018-03-07T03:53:20.748Z,0
2018-03-07T03:54:20.782Z,0
2018-03-07T03:55:20.441Z,0
2018-03-07T03:56:20.958Z,0
2018-03-07T03:57:20.674Z,0
2018-03-07T03:58:20.387Z,0
2018-03-07T03:59:20.632Z,0
2018-03-07T04:00:20.890Z,0
2018-03-07T04:01:20.605Z,0
2018-03-07T04:02:20.611Z,0
2018-03-07T04:03:21.089Z,0
2018-03-07T04:04:20.539Z,0
2018-03-07T04:05:20.778Z,0
2018-03-07T04:06:20.498Z,0
2018-03-07T04:07:20.473Z,0
2018-03-07T04:08:20.729Z,0
2018-03-07T04:09:20.704Z,0
2018-03-07T04:10:20.689Z,0
2018-03-07T04:11:26.673Z,0
2018-03-07T04:12:20.382Z,0
2018-03-07T04:13:20.365Z,0
2018-03-07T04:14:20.609Z,0
2018-03-07T04:15:20.584Z,0
2018-03-07T04:16:20.573Z,0
2018-03-07T04:17:20.019Z,0
2018-03-07T04:18:20.530Z,0
2018-03-07T04:19:20.510Z,0
2018-03-07T04:20:20.749Z,0
2018-03-07T04:21:20.469Z,0
2018-03-07T04:22:20.451Z,0
2018-03-07T04:23:20.163Z,0
2018-03-07T04:24:20.146Z,0
2018-03-07T04:25:19.859Z,0
2018-03-07T04:26:20.101Z,0
2018-03-07T04:27:20.348Z,0
2018-03-07T04:28:20.063Z,0
2018-03-07T04:29:20.574Z,0
2018-03-07T04:30:20.607Z,0
2018-03-07T04:31:20.318Z,0
2018-03-07T04:32:19.987Z,0
2018-03-07T04:33:20.239Z,0
2018-03-07T04:34:19.684Z,0
2018-03-07T04:35:19.927Z,0
2018-03-07T04:36:19.918Z,0
2018-03-07T04:37:20.172Z,0
2018-03-07T04:38:20.403Z,0
2018-03-07T04:39:19.839Z,0
2018-03-07T04:40:19.828Z,0
2018-03-07T04:41:20.094Z,0
2018-03-07T04:42:19.780Z,0
2018-03-07T04:43:19.763Z,0
2018-03-07T04:44:20.007Z,0
2018-03-07T04:45:19.724Z,0
2018-03-07T04:46:19.441Z,0
2018-03-07T04:47:19.682Z,0
2018-03-07T04:48:19.399Z,0
2018-03-07T04:49:19.917Z,0
2018-03-07T04:50:19.885Z,0
2018-03-07T04:51:19.875Z,0
2018-03-07T04:52:19.843Z,0
2018-03-07T04:53:19.827Z,0
2018-03-07T04:54:20.067Z,0
2018-03-07T04:55:19.788Z,0
2018-03-07T04:56:19.765Z,0
2018-03-07T04:57:19.749Z,0
2018-03-07T04:58:19.731Z,0
2018-03-07T04:59:19.432Z,0
2018-03-07T05:00:19.962Z,0
2018-03-07T05:01:19.396Z,0
2018-03-07T05:02:19.640Z,0
2018-03-07T05:03:19.616Z,0
2018-03-07T05:04:19.602Z,0
2018-03-07T05:05:19.582Z,0
2018-03-07T05:06:19.573Z,0
2018-03-07T05:07:19.272Z,0
2018-03-07T05:08:19.249Z,0
2018-03-07T05:09:19.493Z,0
2018-03-07T05:10:19.477Z,0
2018-03-07T05:11:19.186Z,0
2018-03-07T05:12:19.432Z,0
2018-03-07T05:13:18.879Z,0
2018-03-07T05:14:19.123Z,0
2018-03-07T05:15:19.631Z,0
2018-03-07T05:16:19.348Z,0
2018-03-07T05:17:18.796Z,0
2018-03-07T05:18:19.306Z,0
2018-03-07T05:19:19.287Z,0
2018-03-07T05:20:19.006Z,0
2018-03-07T05:21:18.987Z,0
2018-03-07T05:22:18.963Z,0
2018-03-07T05:23:18.939Z,0
2018-03-07T05:24:19.180Z,0
2018-03-07T05:25:19.174Z,0
2018-03-07T05:26:18.615Z,0
2018-03-07T05:27:19.388Z,0
2018-03-07T05:28:19.098Z,0
2018-03-07T05:29:18.812Z,0
2018-03-07T05:30:18.528Z,0
2018-03-07T05:31:18.765Z,0
2018-03-07T05:32:18.743Z,0
2018-03-07T05:33:19.258Z,0
2018-03-07T05:34:18.704Z,0
2018-03-07T05:35:19.244Z,4
2018-03-07T05:36:18.393Z,4
2018-03-07T05:37:18.908Z,0
2018-03-07T05:38:18.880Z,4
2018-03-07T05:39:18.596Z,4
2018-03-07T05:40:18.583Z,4
2018-03-07T05:41:18.557Z,8
2018-03-07T05:42:18.803Z,8
2018-03-07T05:43:18.778Z,12
2018-03-07T05:44:19.019Z,12
2018-03-07T05:45:18.205Z,12
2018-03-07T05:46:18.721Z,16
2018-03-07T05:47:18.425Z,20
2018-03-07T05:48:18.415Z,20
2018-03-07T05:49:18.654Z,24
2018-03-07T05:50:18.367Z,28
2018-03-07T05:51:18.346Z,32
2018-03-07T05:52:18.597Z,36
2018-03-07T05:53:18.568Z,40
2018-03-07T05:54:18.543Z,48
2018-03-07T05:55:18.521Z,52
2018-03-07T05:56:18.765Z,60
2018-03-07T05:57:18.476Z,68
2018-03-07T05:58:18.768Z,76
2018-03-07T05:59:18.733Z,88
2018-03-07T06:00:18.162Z,96
2018-03-07T06:01:18.394Z,108
2018-03-07T06:02:18.119Z,120
2018-03-07T06:03:18.080Z,132
2018-03-07T06:04:18.064Z,140
2018-03-07T06:05:18.311Z,156
2018-03-07T06:06:17.761Z,168
2018-03-07T06:07:18.000Z,184
2018-03-07T06:08:17.988Z,200
2018-03-07T06:09:17.960Z,212
2018-03-07T06:10:18.463Z,228
2018-03-07T06:11:18.181Z,244
2018-03-07T06:12:17.628Z,260
2018-03-07T06:13:18.134Z,276
2018-03-07T06:14:17.848Z,288
2018-03-07T06:15:18.091Z,304
2018-03-07T06:16:17.803Z,324
2018-03-07T06:17:17.521Z,340
2018-03-07T06:18:18.294Z,356
2018-03-07T06:19:17.737Z,376
2018-03-07T06:20:18.250Z,400
2018-03-07T06:21:17.962Z,424
2018-03-07T06:22:17.671Z,452
2018-03-07T06:23:17.655Z,480
2018-03-07T06:24:43.040Z,516
2018-03-07T06:25:18.139Z,536
2018-03-07T06:26:18.117Z,564
2018-03-07T06:27:17.573Z,592
2018-03-07T06:28:17.550Z,628
2018-03-07T06:29:18.048Z,672
2018-03-07T06:30:18.028Z,728
2018-03-07T06:31:17.482Z,792
2018-03-07T06:32:17.723Z,844
2018-03-07T06:33:17.702Z,888
2018-03-07T06:34:17.734Z,936
2018-03-07T06:35:17.127Z,964
2018-03-07T06:36:17.902Z,984
2018-03-07T06:37:17.347Z,1008
2018-03-07T06:38:17.067Z,1040
2018-03-07T06:39:17.046Z,1080
2018-03-07T06:40:17.292Z,1140
2018-03-07T06:41:17.919Z,1208
2018-03-07T06:42:17.511Z,1268
2018-03-07T06:43:17.485Z,1324
2018-03-07T06:44:17.457Z,1388
2018-03-07T06:45:16.914Z,1404
2018-03-07T06:46:17.685Z,1424
2018-03-07T06:47:17.655Z,1444
2018-03-07T06:48:17.375Z,1500
2018-03-07T06:49:16.822Z,1588
2018-03-07T06:50:17.422Z,1724
2018-03-07T06:51:17.310Z,1872
2018-03-07T06:52:17.293Z,1976
2018-03-07T06:53:16.739Z,1984
2018-03-07T06:54:16.991Z,1936
2018-03-07T06:55:16.958Z,1884
2018-03-07T06:56:17.475Z,1840
2018-03-07T06:57:17.188Z,1848
2018-03-07T06:58:17.177Z,1928
2018-03-07T06:59:16.884Z,2068
2018-03-07T07:00:17.383Z,2240
2018-03-07T07:01:16.836Z,2444
2018-03-07T07:02:16.812Z,2636
2018-03-07T07:03:17.056Z,2796
2018-03-07T07:04:16.767Z,2880
2018-03-07T07:05:17.272Z,2880
2018-03-07T07:06:16.801Z,2852
2018-03-07T07:07:17.020Z,2776
2018-03-07T07:08:16.695Z,2704
2018-03-07T07:09:16.402Z,2684
2018-03-07T07:10:16.914Z,2716
2018-03-07T07:11:16.887Z,2768
2018-03-07T07:12:17.136Z,2812
2018-03-07T07:13:16.575Z,2852
2018-03-07T07:14:16.821Z,2876
2018-03-07T07:15:16.532Z,2916
2018-03-07T07:16:16.521Z,2976
2018-03-07T07:17:17.038Z,3104
2018-03-07T07:18:17.007Z,3360
2018-03-07T07:19:16.721Z,3512
2018-03-07T07:20:16.728Z,3616
2018-03-07T07:21:16.412Z,3700
2018-03-07T07:22:16.419Z,3884
2018-03-07T07:23:16.906Z,4092
2018-03-07T07:24:16.348Z,4240
2018-03-07T07:25:16.598Z,4296
2018-03-07T07:26:16.306Z,4484
2018-03-07T07:27:16.555Z,4584
2018-03-07T07:28:16.539Z,4728
2018-03-07T07:29:15.985Z,4676
2018-03-07T07:30:16.756Z,4476
2018-03-07T07:31:16.480Z,4176
2018-03-07T07:32:16.712Z,3736
2018-03-07T07:33:16.431Z,3512
2018-03-07T07:34:16.144Z,3392
2018-03-07T07:35:16.596Z,3304
2018-03-07T07:36:16.368Z,3260
2018-03-07T07:37:16.353Z,3220
2018-03-07T07:38:16.601Z,3296
2018-03-07T07:39:16.580Z,3476
2018-03-07T07:40:16.032Z,3196
2018-03-07T07:41:15.742Z,3404
2018-03-07T07:42:16.257Z,3452
2018-03-07T07:43:16.284Z,3472
2018-03-07T07:44:16.212Z,3504
2018-03-07T07:45:16.196Z,3584
2018-03-07T07:46:16.185Z,3576
2018-03-07T07:47:15.901Z,3564
2018-03-07T07:48:16.400Z,3568
2018-03-07T07:49:16.123Z,3588
2018-03-07T07:50:16.102Z,3624
2018-03-07T07:51:15.810Z,3640
2018-03-07T07:52:16.057Z,3668
2018-03-07T07:53:16.065Z,3696
2018-03-07T07:54:16.291Z,3744
2018-03-07T07:55:15.736Z,3800
2018-03-07T07:56:15.984Z,3832
2018-03-07T07:57:15.708Z,3832
2018-03-07T07:58:15.411Z,3844
2018-03-07T07:59:15.398Z,3880
2018-03-07T08:00:15.642Z,3908
2018-03-07T08:01:16.147Z,3936
2018-03-07T08:02:15.866Z,3972
2018-03-07T08:03:15.580Z,4016
2018-03-07T08:04:16.100Z,4064
2018-03-07T08:05:15.820Z,4100
2018-03-07T08:06:16.062Z,4136
2018-03-07T08:07:15.507Z,4172
2018-03-07T08:08:16.027Z,4220
2018-03-07T08:09:15.732Z,4260
2018-03-07T08:10:15.444Z,4296
2018-03-07T08:11:15.429Z,4364
2018-03-07T08:12:15.943Z,4440
2018-03-07T08:13:15.652Z,4508
2018-03-07T08:14:15.640Z,4568
2018-03-07T08:15:15.613Z,4624
2018-03-07T08:16:15.881Z,4692
2018-03-07T08:17:15.589Z,4748
2018-03-07T08:18:15.859Z,4808
2018-03-07T08:19:15.279Z,4868
2018-03-07T08:20:15.259Z,4896
2018-03-07T08:21:14.972Z,4948
2018-03-07T08:22:15.796Z,5008
2018-03-07T08:23:15.464Z,5044
2018-03-07T08:24:15.720Z,7448
2018-03-07T08:25:14.901Z,12076
2018-03-07T08:26:15.152Z,11824
2018-03-07T08:27:14.862Z,10448
2018-03-07T08:28:15.643Z,10896
2018-03-07T08:29:14.828Z,12796
2018-03-07T08:30:15.607Z,15192
2018-03-07T08:31:15.595Z,16256
2018-03-07T08:32:15.046Z,16160
2018-03-07T08:33:15.035Z,15616
2018-03-07T08:34:15.014Z,14912
2018-03-07T08:35:14.736Z,15200
2018-03-07T08:36:15.510Z,16448
2018-03-07T08:37:14.980Z,18240
2018-03-07T08:38:14.694Z,18944
2018-03-07T08:39:15.214Z,20032
2018-03-07T08:40:14.945Z,21376
2018-03-07T08:41:14.923Z,18528
2018-03-07T08:42:14.903Z,15488
2018-03-07T08:43:14.899Z,15264
2018-03-07T08:44:14.882Z,14944
2018-03-07T08:45:14.880Z,16704
2018-03-07T08:46:15.139Z,18784
2018-03-07T08:47:14.853Z,18176
2018-03-07T08:48:15.111Z,16896
2018-03-07T08:49:14.827Z,18176
2018-03-07T08:50:14.819Z,21440
2018-03-07T08:51:14.545Z,21952
2018-03-07T08:52:15.064Z,20992
2018-03-07T08:53:15.060Z,20736
2018-03-07T08:54:15.042Z,20640
2018-03-07T08:55:15.041Z,19392
2018-03-07T08:56:15.341Z,18624
2018-03-07T08:57:14.755Z,18016
2018-03-07T08:58:14.744Z,17536
2018-03-07T08:59:14.734Z,13328
2018-03-07T09:00:14.728Z,13508
2018-03-07T09:01:14.990Z,15392
2018-03-07T09:02:15.248Z,16384
2018-03-07T09:03:15.237Z,15904
2018-03-07T09:04:14.972Z,13700
2018-03-07T09:05:15.232Z,13552
2018-03-07T09:06:14.685Z,18368
2018-03-07T09:07:14.938Z,17568
2018-03-07T09:08:14.668Z,12224
2018-03-07T09:09:14.924Z,13644
2018-03-07T09:10:14.992Z,13620
2018-03-07T09:11:14.373Z,11324
2018-03-07T09:12:14.904Z,11032
2018-03-07T09:13:14.890Z,11468
2018-03-07T09:14:14.892Z,12884
2018-03-07T09:15:14.879Z,19040
2018-03-07T09:16:14.336Z,22816
2018-03-07T09:17:14.851Z,21664
2018-03-07T09:18:14.588Z,17728
2018-03-07T09:19:14.576Z,12700
2018-03-07T09:20:14.833Z,9852
2018-03-07T09:21:14.558Z,8296
2018-03-07T09:22:14.552Z,11036
2018-03-07T09:23:14.597Z,18208
2018-03-07T09:24:14.270Z,16160
2018-03-07T09:25:14.525Z,19904
2018-03-07T09:26:15.057Z,25408
2018-03-07T09:27:14.246Z,20064
2018-03-07T09:28:14.506Z,16328
2018-03-07T09:29:15.030Z,14088
2018-03-07T09:30:14.218Z,14544
2018-03-07T09:31:14.740Z,18432
2018-03-07T09:32:14.209Z,22176
2018-03-07T09:33:14.730Z,25728
2018-03-07T09:34:14.721Z,26432
2018-03-07T09:35:14.916Z,21984
2018-03-07T09:36:14.720Z,17888
2018-03-07T09:37:14.433Z,14088
2018-03-07T09:38:14.694Z,19072
2018-03-07T09:39:14.424Z,18016
2018-03-07T09:40:14.682Z,10688
2018-03-07T09:41:14.672Z,8228
2018-03-07T09:42:14.665Z,10956
2018-03-07T09:43:14.662Z,19904
2018-03-07T09:44:14.648Z,22432
2018-03-07T09:45:14.780Z,16288
2018-03-07T09:46:14.367Z,16256
2018-03-07T09:47:14.639Z,24896
2018-03-07T09:48:14.895Z,28096
2018-03-07T09:49:14.345Z,25408
2018-03-07T09:50:14.385Z,20448
2018-03-07T09:51:14.330Z,17696
2018-03-07T09:52:14.328Z,20224
2018-03-07T09:53:14.051Z,20128
2018-03-07T09:54:14.584Z,18848
2018-03-07T09:55:14.300Z,13652
2018-03-07T09:56:14.891Z,10624
2018-03-07T09:57:14.560Z,11304
2018-03-07T09:58:14.549Z,14568
2018-03-07T09:59:14.020Z,15776
2018-03-07T10:00:14.268Z,12516
2018-03-07T10:01:14.537Z,10528
2018-03-07T10:02:14.252Z,10576
2018-03-07T10:03:14.518Z,14752
2018-03-07T10:04:14.764Z,21856
2018-03-07T10:05:13.964Z,26496
2018-03-07T10:06:14.755Z,9236
2018-03-07T10:07:14.254Z,9144
2018-03-07T10:08:14.208Z,12220
2018-03-07T10:09:13.938Z,8960
2018-03-07T10:10:13.930Z,8980
2018-03-07T10:11:14.451Z,12472
2018-03-07T10:12:14.721Z,9440
2018-03-07T10:13:14.444Z,9936
2018-03-07T10:14:14.432Z,20128
2018-03-07T10:15:14.174Z,21184
2018-03-07T10:16:13.884Z,16032
2018-03-07T10:17:14.402Z,22432
2018-03-07T10:18:14.394Z,27936
2018-03-07T10:19:14.120Z,23168
2018-03-07T10:20:13.845Z,18176
2018-03-07T10:21:14.371Z,19104
2018-03-07T10:22:14.094Z,21728
2018-03-07T10:23:14.619Z,16864
2018-03-07T10:24:14.079Z,13820
2018-03-07T10:25:14.600Z,14468
2018-03-07T10:26:14.535Z,16940
2018-03-07T10:27:14.314Z,18944
2018-03-07T10:28:14.046Z,22816
2018-03-07T10:29:14.038Z,25024
2018-03-07T10:30:14.081Z,24288
2018-03-07T10:31:14.285Z,24960
2018-03-07T10:32:14.280Z,27648
2018-03-07T10:33:14.272Z,21824
2018-03-07T10:34:13.782Z,22432
2018-03-07T10:35:14.025Z,27392
2018-03-07T10:36:14.296Z,32928
2018-03-07T10:37:13.985Z,34464
2018-03-07T10:38:14.548Z,25216
2018-03-07T10:39:13.955Z,20544
2018-03-07T10:40:14.481Z,26720
2018-03-07T10:41:13.965Z,29760
2018-03-07T10:42:13.945Z,34848
2018-03-07T10:43:13.941Z,19392
2018-03-07T10:44:14.191Z,21728
2018-03-07T10:45:14.195Z,12376
2018-03-07T10:46:13.918Z,12932
2018-03-07T10:47:14.267Z,13296
2018-03-07T10:48:14.157Z,12596
2018-03-07T10:49:14.424Z,11756
2018-03-07T10:50:13.900Z,10848
2018-03-07T10:51:13.882Z,10256
2018-03-07T10:52:13.893Z,9592
2018-03-07T10:53:13.864Z,8740
2018-03-07T10:54:13.868Z,8244
2018-03-07T10:55:13.582Z,7876
2018-03-07T10:56:14.377Z,7492
2018-03-07T10:57:14.096Z,7164
2018-03-07T10:58:13.561Z,6872
2018-03-07T10:59:13.555Z,6540
2018-03-07T11:00:13.816Z,6308
2018-03-07T11:01:14.065Z,6088
2018-03-07T11:02:14.058Z,5828
2018-03-07T11:03:14.051Z,5776
2018-03-07T11:04:13.506Z,5936
2018-03-07T11:05:14.030Z,5900
2018-03-07T11:06:13.762Z,5676
2018-03-07T11:07:14.018Z,5420
2018-03-07T11:08:13.994Z,5040
2018-03-07T11:09:13.715Z,4776
2018-03-07T11:10:13.715Z,4416
2018-03-07T11:11:13.970Z,3984
2018-03-07T11:12:13.428Z,3524
2018-03-07T11:13:13.679Z,3140
2018-03-07T11:14:14.132Z,2864
2018-03-07T11:15:13.920Z,2700
2018-03-07T11:16:14.181Z,2600
2018-03-07T11:17:13.901Z,2536
2018-03-07T11:18:13.896Z,2472
2018-03-07T11:19:13.613Z,2404
2018-03-07T11:20:13.604Z,2352
2018-03-07T11:21:13.339Z,2292
2018-03-07T11:22:13.836Z,2224
2018-03-07T11:23:13.616Z,2168
2018-03-07T11:24:13.288Z,2160
2018-03-07T11:25:13.537Z,2192
2018-03-07T11:26:13.793Z,2228
2018-03-07T11:27:13.775Z,2244
2018-03-07T11:28:13.774Z,2248
2018-03-07T11:29:13.272Z,2260
2018-03-07T11:30:13.789Z,2296
2018-03-07T11:31:13.461Z,2368
2018-03-07T11:32:13.718Z,2488
2018-03-07T11:33:13.168Z,2620
2018-03-07T11:34:13.417Z,2704
2018-03-07T11:35:14.140Z,2736
2018-03-07T11:36:13.124Z,2720
2018-03-07T11:37:13.380Z,2684
2018-03-07T11:38:13.651Z,2616
2018-03-07T11:39:13.626Z,2572
2018-03-07T11:40:13.342Z,2552
2018-03-07T11:41:13.331Z,2528
2018-03-07T11:42:13.586Z,2448
2018-03-07T11:43:13.563Z,2300
2018-03-07T11:44:13.548Z,2108
2018-03-07T11:45:13.956Z,1912
2018-03-07T11:46:13.256Z,1724
2018-03-07T11:47:13.508Z,1560
2018-03-07T11:48:13.497Z,1432
2018-03-07T11:49:13.486Z,1352
2018-03-07T11:50:13.198Z,1300
2018-03-07T11:51:13.462Z,1268
2018-03-07T11:52:13.216Z,1252
2018-03-07T11:53:13.687Z,1240
2018-03-07T11:54:13.428Z,1252
2018-03-07T11:55:12.866Z,1284
2018-03-07T11:56:13.793Z,1316
2018-03-07T11:57:13.626Z,1328
2018-03-07T11:58:13.349Z,1316
2018-03-07T11:59:13.598Z,1308
2018-03-07T12:00:13.327Z,1304
2018-03-07T12:01:13.038Z,1300
2018-03-07T12:02:12.765Z,1308
2018-03-07T12:03:13.019Z,1324
2018-03-07T12:04:12.998Z,1340
2018-03-07T12:05:12.722Z,1344
2018-03-07T12:06:13.245Z,1328
2018-03-07T12:07:13.263Z,1280
2018-03-07T12:08:13.209Z,1252
2018-03-07T12:09:12.919Z,1256
2018-03-07T12:10:12.908Z,1244
2018-03-07T12:11:13.346Z,1220
2018-03-07T12:12:13.145Z,1232
2018-03-07T12:13:13.131Z,1280
2018-03-07T12:14:13.175Z,1336
2018-03-07T12:15:12.837Z,1376
2018-03-07T12:16:13.397Z,1424
2018-03-07T12:17:13.069Z,1432
2018-03-07T12:18:13.059Z,1464
2018-03-07T12:19:12.510Z,1576
2018-03-07T12:20:13.044Z,1676
2018-03-07T12:21:12.481Z,1820
2018-03-07T12:22:13.005Z,1948
2018-03-07T12:23:12.720Z,1880
2018-03-07T12:24:12.975Z,1792
2018-03-07T12:25:12.429Z,1872
2018-03-07T12:26:12.680Z,2012
2018-03-07T12:27:13.202Z,2116
2018-03-07T12:28:13.199Z,2172
2018-03-07T12:29:12.901Z,2244
2018-03-07T12:30:12.612Z,2504
2018-03-07T12:31:12.596Z,2832
2018-03-07T12:32:12.849Z,3372
2018-03-07T12:33:12.773Z,4308
2018-03-07T12:34:12.552Z,5184
2018-03-07T12:35:12.848Z,5744
2018-03-07T12:36:12.818Z,6224
2018-03-07T12:37:12.773Z,6492
2018-03-07T12:38:12.763Z,6496
2018-03-07T12:39:12.483Z,6400
2018-03-07T12:40:12.196Z,6348
2018-03-07T12:41:12.721Z,6332
2018-03-07T12:42:12.169Z,6204
2018-03-07T12:43:12.430Z,6136
2018-03-07T12:44:12.408Z,6100
2018-03-07T12:45:12.650Z,6120
2018-03-07T12:46:12.645Z,6016
2018-03-07T12:47:12.354Z,5756
2018-03-07T12:48:12.346Z,5440
2018-03-07T12:49:12.616Z,5128
2018-03-07T12:50:12.313Z,5296
2018-03-07T12:51:12.889Z,5532
2018-03-07T12:52:12.891Z,5664
2018-03-07T12:53:12.270Z,5808
2018-03-07T12:54:12.787Z,5952
2018-03-07T12:55:12.513Z,6128
2018-03-07T12:56:12.508Z,6268
2018-03-07T12:57:12.223Z,6320
2018-03-07T12:58:12.208Z,6244
2018-03-07T12:59:12.735Z,6048
2018-03-07T13:00:12.494Z,5664
2018-03-07T13:01:12.166Z,4956
2018-03-07T13:02:12.413Z,4268
2018-03-07T13:03:12.394Z,4200
2018-03-07T13:04:12.390Z,4880
2018-03-07T13:05:12.112Z,5736
2018-03-07T13:06:11.819Z,6040
2018-03-07T13:07:12.610Z,6152
2018-03-07T13:08:12.323Z,6100
2018-03-07T13:09:12.304Z,5948
2018-03-07T13:10:12.286Z,5900
2018-03-07T13:11:12.546Z,5948
2018-03-07T13:12:12.266Z,6180
2018-03-07T13:13:12.245Z,6304
2018-03-07T13:14:11.696Z,6412
2018-03-07T13:15:12.485Z,6352
2018-03-07T13:16:12.473Z,6000
2018-03-07T13:17:12.197Z,5704
2018-03-07T13:18:12.178Z,5680
2018-03-07T13:19:12.238Z,5688
2018-03-07T13:20:12.141Z,5984
2018-03-07T13:21:11.593Z,5940
2018-03-07T13:22:12.411Z,5504
2018-03-07T13:23:12.098Z,4964
2018-03-07T13:24:11.822Z,4944
2018-03-07T13:25:12.067Z,6048
2018-03-07T13:26:12.051Z,7644
2018-03-07T13:27:11.766Z,8892
2018-03-07T13:28:11.760Z,9688
2018-03-07T13:29:11.737Z,9532
2018-03-07T13:30:12.004Z,9012
2018-03-07T13:31:11.982Z,8484
2018-03-07T13:32:11.697Z,8008
2018-03-07T13:33:12.206Z,7736
2018-03-07T13:34:12.201Z,7488
2018-03-07T13:35:12.120Z,7224
2018-03-07T13:36:11.630Z,7072
2018-03-07T13:37:11.621Z,6588
2018-03-07T13:38:12.144Z,6028
2018-03-07T13:39:12.121Z,5516
2018-03-07T13:40:11.839Z,4824
2018-03-07T13:41:11.869Z,4240
2018-03-07T13:42:11.539Z,3948
2018-03-07T13:43:12.076Z,3756
2018-03-07T13:44:11.782Z,3648
2018-03-07T13:45:11.525Z,3636
2018-03-07T13:46:11.487Z,3760
2018-03-07T13:47:11.195Z,3804
2018-03-07T13:48:11.717Z,4500
2018-03-07T13:49:11.704Z,5240
2018-03-07T13:50:11.436Z,5672